createdAt,value
2023-01-23T00:01:34.451Z,158.07
2023-01-23T00:04:02.096Z,159.67
2023-01-23T00:06:29.671Z,161.10
2023-01-23T00:08:57.537Z,164.87
2023-01-23T00:11:28.547Z,158.90
2023-01-23T00:13:58.358Z,158.77
2023-01-23T00:16:28.246Z,167.03
2023-01-23T00:18:56.340Z,158.17
2023-01-23T00:21:27.461Z,160.17
2023-01-23T00:23:57.178Z,163.97
2023-01-23T00:26:29.383Z,160.60
2023-01-23T00:28:57.124Z,159.50
2023-01-23T00:31:36.137Z,161.63
2023-01-23T00:34:11.978Z,157.03
2023-01-23T00:36:42.635Z,162.50
2023-01-23T00:39:17.703Z,162.93
2023-01-23T00:41:47.207Z,153.53
2023-01-23T00:44:15.413Z,155.67
2023-01-23T00:46:42.682Z,156.50
2023-01-23T00:49:10.259Z,158.70
2023-01-23T00:51:37.699Z,161.97
2023-01-23T00:54:04.826Z,157.57
2023-01-23T00:56:32.050Z,166.73
2023-01-23T00:58:59.513Z,157.57
2023-01-23T01:01:27.984Z,156.10
2023-01-23T01:03:55.500Z,157.93
2023-01-23T01:06:22.946Z,166.07
2023-01-23T01:08:50.754Z,155.73
2023-01-23T01:11:18.523Z,158.50
2023-01-23T01:13:46.336Z,158.00
2023-01-23T01:16:14.111Z,166.13
2023-01-23T01:18:41.294Z,153.00
2023-01-23T01:21:10.818Z,157.17
2023-01-23T01:23:39.040Z,160.13
2023-01-23T01:26:07.550Z,158.27
2023-01-23T01:28:36.824Z,154.83
2023-01-23T01:31:12.254Z,157.83
2023-01-23T01:33:41.258Z,155.27
2023-01-23T01:36:14.693Z,160.40
2023-01-23T01:38:41.853Z,156.03
2023-01-23T01:41:09.610Z,161.27
2023-01-23T01:43:37.308Z,163.17
2023-01-23T01:46:26.731Z,154.83
2023-01-23T01:49:24.272Z,158.53
2023-01-23T01:51:56.870Z,157.70
2023-01-23T01:54:38.626Z,159.77
2023-01-23T01:57:12.134Z,160.50
2023-01-23T02:00:05.331Z,157.00
2023-01-23T02:02:51.156Z,163.80
2023-01-23T02:05:28.089Z,158.87
2023-01-23T02:08:23.169Z,157.17
2023-01-23T02:10:52.854Z,156.33
2023-01-23T02:13:39.946Z,157.73
2023-01-23T02:16:11.512Z,159.30
2023-01-23T02:18:46.334Z,151.63
2023-01-23T02:21:16.370Z,160.93
2023-01-23T02:24:20.567Z,161.80
2023-01-23T02:26:47.753Z,154.73
2023-01-23T02:29:16.614Z,160.60
2023-01-23T02:31:49.811Z,163.00
2023-01-23T02:34:17.493Z,153.47
2023-01-23T02:36:48.309Z,157.93
2023-01-23T02:39:19.284Z,168.83
2023-01-23T02:41:53.486Z,154.27
2023-01-23T02:44:33.465Z,157.40
2023-01-23T02:47:11.779Z,164.40
2023-01-23T02:49:40.463Z,157.03
2023-01-23T02:52:09.941Z,160.17
2023-01-23T02:54:37.227Z,168.60
2023-01-23T02:57:04.521Z,153.13
2023-01-23T02:59:50.083Z,156.87
2023-01-23T03:02:17.916Z,165.87
2023-01-23T03:04:45.494Z,164.43
2023-01-23T03:07:12.966Z,161.57
2023-01-23T03:09:41.983Z,163.03
2023-01-23T03:12:09.461Z,156.90
2023-01-23T03:14:38.049Z,157.20
2023-01-23T03:17:05.570Z,159.80
2023-01-23T03:19:35.730Z,159.37
2023-01-23T03:22:02.906Z,164.50
2023-01-23T03:24:30.010Z,158.27
2023-01-23T03:26:57.161Z,158.43
2023-01-23T03:29:45.211Z,165.60
2023-01-23T03:32:16.774Z,158.57
2023-01-23T03:34:45.077Z,161.83
2023-01-23T03:37:13.598Z,163.50
2023-01-23T03:40:02.669Z,160.93
2023-01-23T03:42:34.804Z,157.50
2023-01-23T03:45:04.264Z,162.43
2023-01-23T03:47:34.336Z,166.30
2023-01-23T03:50:01.432Z,161.53
2023-01-23T03:52:33.437Z,161.67
2023-01-23T03:55:00.857Z,162.43
2023-01-23T03:57:28.416Z,165.27
2023-01-23T04:00:01.863Z,170.90
2023-01-23T04:02:41.406Z,167.40
2023-01-23T04:05:10.864Z,161.30
2023-01-23T04:07:38.968Z,164.10
2023-01-23T04:10:06.687Z,165.03
2023-01-23T04:12:33.739Z,161.63
2023-01-23T04:15:01.179Z,157.40
2023-01-23T04:17:29.317Z,163.77
2023-01-23T04:19:56.737Z,170.00
2023-01-23T04:22:24.169Z,171.03
2023-01-23T04:24:51.410Z,167.20
2023-01-23T04:27:19.822Z,162.97
2023-01-23T04:29:48.058Z,168.40
2023-01-23T04:32:15.247Z,160.23
2023-01-23T04:34:46.054Z,157.27
2023-01-23T04:37:13.304Z,161.93
2023-01-23T04:39:41.433Z,166.97
2023-01-23T04:42:09.168Z,164.37
2023-01-23T04:45:06.421Z,165.87
2023-01-23T04:47:33.562Z,158.83
2023-01-23T04:50:03.940Z,164.33
2023-01-23T04:52:34.291Z,163.47
2023-01-23T04:55:01.906Z,159.53
2023-01-23T04:57:29.424Z,159.10
2023-01-23T05:00:11.106Z,163.17
2023-01-23T05:02:38.705Z,160.23
2023-01-23T05:05:06.947Z,162.03
2023-01-23T05:07:34.460Z,166.37
2023-01-23T05:10:07.786Z,163.87
2023-01-23T05:12:35.736Z,163.37
2023-01-23T05:15:04.437Z,164.67
2023-01-23T05:17:35.102Z,165.47
2023-01-23T05:20:03.713Z,159.90
2023-01-23T05:22:31.220Z,164.40
2023-01-23T05:24:59.702Z,162.53
2023-01-23T05:27:29.722Z,164.53
2023-01-23T05:29:59.745Z,160.47
2023-01-23T05:32:31.015Z,164.33
2023-01-23T05:35:11.898Z,166.40
2023-01-23T05:37:42.399Z,169.97
2023-01-23T05:40:13.186Z,170.67
2023-01-23T05:42:59.129Z,158.93
2023-01-23T05:46:02.131Z,162.63
2023-01-23T05:49:02.051Z,165.40
2023-01-23T05:51:32.596Z,166.90
2023-01-23T05:54:02.156Z,177.30
2023-01-23T05:56:30.250Z,173.43
2023-01-23T05:59:23.089Z,163.37
2023-01-23T06:02:00.777Z,164.70
2023-01-23T06:04:40.539Z,165.53
2023-01-23T06:07:20.062Z,162.17
2023-01-23T06:09:51.277Z,162.77
2023-01-23T06:12:18.387Z,162.63
2023-01-23T06:14:45.504Z,161.47
2023-01-23T06:17:13.461Z,163.07
2023-01-23T06:19:40.591Z,166.30
2023-01-23T06:22:08.953Z,157.87
2023-01-23T06:24:52.786Z,154.40
2023-01-23T06:27:20.803Z,162.57
2023-01-23T06:29:47.956Z,159.97
2023-01-23T06:32:16.489Z,162.60
2023-01-23T06:34:44.080Z,165.23
2023-01-23T06:37:12.087Z,157.60
2023-01-23T06:39:42.920Z,172.17
2023-01-23T06:42:10.989Z,163.73
2023-01-23T06:44:43.392Z,158.97
2023-01-23T06:47:11.758Z,171.33
2023-01-23T06:49:41.126Z,160.37
2023-01-23T06:52:08.678Z,170.43
2023-01-23T06:54:36.684Z,164.83
2023-01-23T06:57:04.843Z,159.73
2023-01-23T06:59:32.577Z,162.27
2023-01-23T07:02:02.822Z,162.60
2023-01-23T07:04:37.972Z,165.00
2023-01-23T07:07:05.924Z,161.97
2023-01-23T07:09:34.380Z,168.10
2023-01-23T07:12:09.554Z,171.07
2023-01-23T07:14:36.763Z,164.47
2023-01-23T07:17:04.341Z,170.27
2023-01-23T07:19:32.569Z,160.40
2023-01-23T07:22:01.446Z,171.13
2023-01-23T07:24:31.664Z,163.63
2023-01-23T07:26:58.996Z,166.37
2023-01-23T07:29:26.189Z,162.93
2023-01-23T07:31:53.459Z,164.43
2023-01-23T07:34:20.977Z,163.33
2023-01-23T07:36:48.019Z,166.70
2023-01-23T07:39:16.201Z,169.27
2023-01-23T07:41:45.427Z,164.93
2023-01-23T07:44:20.392Z,160.03
2023-01-23T07:46:49.049Z,160.33
2023-01-23T07:49:16.241Z,164.73
2023-01-23T07:51:43.795Z,161.97
2023-01-23T07:54:11.304Z,167.00
2023-01-23T07:56:38.886Z,174.73
2023-01-23T07:59:06.038Z,158.10
2023-01-23T08:01:33.078Z,165.07
2023-01-23T08:04:00.634Z,166.37
2023-01-23T08:06:27.757Z,163.77
2023-01-23T08:08:54.846Z,162.07
2023-01-23T08:11:23.944Z,175.40
2023-01-23T08:13:52.642Z,167.97
2023-01-23T08:16:20.154Z,171.93
2023-01-23T08:18:47.249Z,158.87
2023-01-23T08:21:14.412Z,171.90
2023-01-23T08:23:41.928Z,170.93
2023-01-23T08:26:11.609Z,166.03
2023-01-23T08:28:38.758Z,171.50
2023-01-23T08:31:09.047Z,168.00
2023-01-23T08:33:38.109Z,166.70
2023-01-23T08:36:08.997Z,165.87
2023-01-23T08:38:38.338Z,167.43
2023-01-23T08:41:06.288Z,167.70
2023-01-23T08:43:33.625Z,163.13
2023-01-23T08:46:00.949Z,178.47
2023-01-23T08:48:28.504Z,174.97
2023-01-23T08:51:02.368Z,167.50
2023-01-23T08:53:30.859Z,164.07
2023-01-23T08:56:22.768Z,164.03
2023-01-23T08:58:50.554Z,169.63
2023-01-23T09:01:25.057Z,165.67
2023-01-23T09:03:52.649Z,166.50
2023-01-23T09:06:22.120Z,174.53
2023-01-23T09:08:49.470Z,173.07
2023-01-23T09:11:17.586Z,178.33
2023-01-23T09:13:46.850Z,171.37
2023-01-23T09:16:14.220Z,173.23
2023-01-23T09:18:41.726Z,184.47
2023-01-23T09:21:16.629Z,185.57
2023-01-23T09:23:43.862Z,182.57
2023-01-23T09:26:14.294Z,183.73
2023-01-23T09:28:42.823Z,190.33
2023-01-23T09:31:13.029Z,180.93
2023-01-23T09:33:41.033Z,178.57
2023-01-23T09:36:09.140Z,169.83
2023-01-23T09:38:36.557Z,160.33
2023-01-23T09:41:24.297Z,170.67
2023-01-23T09:44:07.559Z,172.13
2023-01-23T09:46:51.965Z,169.40
2023-01-23T09:49:49.711Z,171.80
2023-01-23T09:52:23.458Z,170.70
2023-01-23T09:55:33.783Z,166.83
2023-01-23T09:58:03.532Z,170.57
2023-01-23T10:00:33.801Z,166.30
2023-01-23T10:03:04.815Z,175.13
2023-01-23T10:06:06.863Z,179.10
2023-01-23T10:08:55.265Z,174.63
2023-01-23T10:11:56.327Z,180.40
2023-01-23T10:14:48.261Z,171.10
2023-01-23T10:17:44.019Z,169.73
2023-01-23T10:20:41.653Z,175.47
2023-01-23T10:23:47.343Z,169.23
2023-01-23T10:26:26.261Z,170.30
2023-01-23T10:29:14.356Z,163.37
2023-01-23T10:31:51.902Z,165.00
2023-01-23T10:34:26.947Z,175.70
2023-01-23T10:37:41.058Z,165.53
2023-01-23T10:40:15.401Z,168.10
2023-01-23T10:42:42.555Z,171.70
2023-01-23T10:45:19.415Z,168.13
2023-01-23T10:47:54.727Z,170.90
2023-01-23T10:50:40.709Z,172.03
2023-01-23T10:53:19.964Z,175.93
2023-01-23T10:55:47.513Z,282.70
2023-01-23T11:00:36.416Z,180.93
2023-01-23T11:03:21.876Z,176.23
2023-01-23T11:06:02.049Z,171.20
2023-01-23T11:08:41.060Z,178.97
2023-01-23T11:11:22.807Z,181.27
2023-01-23T11:14:16.936Z,181.33
2023-01-23T11:16:44.742Z,178.40
2023-01-23T11:19:20.239Z,180.77
2023-01-23T11:21:58.661Z,173.37
2023-01-23T11:24:39.839Z,176.70
2023-01-23T11:27:20.645Z,184.63
2023-01-23T11:30:09.503Z,180.10
2023-01-23T11:32:52.619Z,174.07
2023-01-23T11:35:30.042Z,173.90
2023-01-23T11:37:58.838Z,175.40
2023-01-23T11:40:26.247Z,176.30
2023-01-23T11:42:55.691Z,186.30
2023-01-23T11:45:37.860Z,178.10
2023-01-23T11:48:29.959Z,190.10
2023-01-23T11:51:13.223Z,179.20
2023-01-23T11:53:52.140Z,182.50
2023-01-23T11:57:12.067Z,179.40
2023-01-23T11:59:42.234Z,180.77
2023-01-23T12:02:31.563Z,179.57
2023-01-23T12:05:29.816Z,174.90
2023-01-23T12:08:23.807Z,182.43
2023-01-23T12:11:12.138Z,173.50
2023-01-23T12:14:15.487Z,237.97
2023-01-23T12:17:09.197Z,197.33
2023-01-23T12:19:45.081Z,193.93
2023-01-23T12:22:53.554Z,184.80
2023-01-23T12:25:37.842Z,185.80
2023-01-23T12:28:35.532Z,172.83
2023-01-23T12:31:33.598Z,184.97
2023-01-23T12:34:34.667Z,180.97
2023-01-23T12:37:29.961Z,180.37
2023-01-23T12:40:08.606Z,178.67
2023-01-23T12:43:22.130Z,182.27
2023-01-23T12:46:05.844Z,176.87
2023-01-23T12:49:19.125Z,180.77
2023-01-23T12:51:52.826Z,186.60
2023-01-23T12:54:33.788Z,184.63
2023-01-23T12:57:04.733Z,184.97
2023-01-23T13:00:01.234Z,175.40
2023-01-23T13:02:48.634Z,174.70
2023-01-23T13:05:27.142Z,177.10
2023-01-23T13:08:40.543Z,176.90
2023-01-23T13:11:58.743Z,180.83
2023-01-23T13:15:06.993Z,172.67
2023-01-23T13:17:45.095Z,171.00
2023-01-23T13:20:48.272Z,178.93
2023-01-23T13:23:32.051Z,178.20
2023-01-23T13:26:20.768Z,180.10
2023-01-23T13:28:56.162Z,181.63
2023-01-23T13:31:47.209Z,180.00
2023-01-23T13:34:17.349Z,184.13
2023-01-23T13:36:47.695Z,183.17
2023-01-23T13:39:17.946Z,179.87
2023-01-23T13:42:14.206Z,175.00
2023-01-23T13:45:20.826Z,189.93
2023-01-23T14:20:39.687Z,194.57
2023-01-23T14:23:38.193Z,190.57
2023-01-23T14:26:09.476Z,190.43
2023-01-23T14:28:37.322Z,187.07
2023-01-23T14:31:26.536Z,189.50
2023-01-23T14:34:09.161Z,188.10
2023-01-23T14:36:38.679Z,181.10
2023-01-23T14:39:05.923Z,177.43
2023-01-23T14:41:41.368Z,197.83
2023-01-23T14:44:23.458Z,185.00
2023-01-23T14:46:56.876Z,185.03
2023-01-23T14:49:35.189Z,187.73
2023-01-23T14:52:08.024Z,186.30
2023-01-23T14:54:37.862Z,188.27
2023-01-23T14:57:09.540Z,181.27
2023-01-23T14:59:39.764Z,185.37
2023-01-23T15:02:31.308Z,178.23
2023-01-23T15:05:13.428Z,186.70
2023-01-23T15:08:00.155Z,188.00
2023-01-23T15:10:45.132Z,184.73
2023-01-23T15:13:22.915Z,187.00
2023-01-23T15:16:06.071Z,187.90
2023-01-23T15:18:36.984Z,181.97
2023-01-23T15:21:08.541Z,188.63
2023-01-23T15:23:40.845Z,185.60
2023-01-23T15:26:24.024Z,180.50
2023-01-23T15:28:52.947Z,185.07
2023-01-23T15:31:32.357Z,188.53
2023-01-23T15:34:31.501Z,185.37
2023-01-23T15:37:12.550Z,179.93
2023-01-23T15:39:40.882Z,188.87
2023-01-23T15:42:13.890Z,184.10
2023-01-23T15:44:42.880Z,182.77
2023-01-23T15:47:11.053Z,186.97
2023-01-23T15:49:40.378Z,190.17
2023-01-23T15:52:28.593Z,193.07
2023-01-23T15:55:00.732Z,187.60
2023-01-23T15:57:28.277Z,190.07
2023-01-23T15:59:55.739Z,186.80
2023-01-23T16:02:31.070Z,187.27
2023-01-23T16:05:01.161Z,187.77
2023-01-23T16:07:35.078Z,186.33
2023-01-23T16:10:19.677Z,187.70
2023-01-23T16:12:48.959Z,183.10
2023-01-23T16:15:27.376Z,185.17
2023-01-23T16:17:55.369Z,206.83
2023-01-23T16:20:23.794Z,200.17
2023-01-23T16:22:57.679Z,194.10
2023-01-23T16:25:44.552Z,194.73
2023-01-23T16:28:25.954Z,200.67
2023-01-23T16:30:53.880Z,186.27
2023-01-23T16:33:22.200Z,183.80
2023-01-23T16:35:51.123Z,190.17
2023-01-23T16:38:27.861Z,185.87
2023-01-23T16:40:56.819Z,183.70
2023-01-23T16:43:24.167Z,187.17
2023-01-23T16:45:56.108Z,181.03
2023-01-23T16:48:27.622Z,178.90
2023-01-23T16:51:12.938Z,191.83
2023-01-23T16:53:44.264Z,188.97
2023-01-23T16:56:37.506Z,179.37
2023-01-23T16:59:08.222Z,179.87
2023-01-23T17:01:40.422Z,186.83
2023-01-23T17:04:07.981Z,187.20
2023-01-23T17:06:35.417Z,183.43
2023-01-23T17:09:02.891Z,177.33
2023-01-23T17:11:36.914Z,186.70
2023-01-23T17:14:21.139Z,186.30
2023-01-23T17:16:49.936Z,193.93
2023-01-23T17:19:29.299Z,188.60
2023-01-23T17:21:58.641Z,185.27
2023-01-23T17:24:26.124Z,195.77
2023-01-23T17:26:53.210Z,195.33
2023-01-23T17:29:20.792Z,186.97
2023-01-23T17:31:49.129Z,194.17
2023-01-23T17:34:26.845Z,190.53
2023-01-23T17:36:55.153Z,182.40
2023-01-23T17:39:22.512Z,196.27
2023-01-23T17:41:51.385Z,191.40
2023-01-23T17:44:18.883Z,189.90
2023-01-23T17:46:47.535Z,189.73
2023-01-23T17:49:30.554Z,220.93
2023-01-23T17:52:00.184Z,182.30
2023-01-23T17:54:27.525Z,191.23
2023-01-23T17:56:55.327Z,190.80
2023-01-23T17:59:22.887Z,185.03
2023-01-23T18:01:50.457Z,332.43
2023-01-23T18:04:21.649Z,185.07
2023-01-23T18:06:49.640Z,200.23
2023-01-23T18:09:17.296Z,192.20
2023-01-23T18:11:52.162Z,193.97
2023-01-23T18:14:35.148Z,184.13
2023-01-23T18:17:02.692Z,191.30
2023-01-23T18:19:30.432Z,196.43
2023-01-23T18:21:58.133Z,190.67
2023-01-23T18:24:30.389Z,194.93
2023-01-23T18:27:23.186Z,194.47
2023-01-23T18:30:27.532Z,200.87
2023-01-23T18:33:03.641Z,192.77
2023-01-23T18:36:02.499Z,195.47
2023-01-23T18:39:03.566Z,191.23
2023-01-23T18:41:30.878Z,198.40
2023-01-23T18:44:10.790Z,193.20
2023-01-23T18:46:38.659Z,201.00
2023-01-23T18:49:06.394Z,199.00
2023-01-23T18:51:47.207Z,200.40
2023-01-23T18:54:45.550Z,195.57
2023-01-23T18:57:48.943Z,197.00
2023-01-23T19:00:24.872Z,188.80
2023-01-23T19:02:57.120Z,197.07
2023-01-23T19:05:30.597Z,196.97
2023-01-23T19:08:00.013Z,196.80
2023-01-23T19:10:48.665Z,185.80
2023-01-23T19:13:42.956Z,196.57
2023-01-23T19:16:35.679Z,189.63
2023-01-23T19:19:19.694Z,193.67
2023-01-23T19:21:47.396Z,191.70
2023-01-23T19:24:18.768Z,190.43
2023-01-23T19:26:46.591Z,198.83
2023-01-23T19:29:22.147Z,187.87
2023-01-23T19:32:06.658Z,180.93
2023-01-23T19:34:34.909Z,185.07
2023-01-23T19:37:03.253Z,186.03
2023-01-23T19:39:30.918Z,184.70
2023-01-23T19:41:59.304Z,184.90
2023-01-23T19:44:28.973Z,192.13
2023-01-23T19:46:56.601Z,186.60
2023-01-23T19:49:25.122Z,185.70
2023-01-23T19:51:52.676Z,185.57
2023-01-23T19:54:22.217Z,179.40
2023-01-23T19:56:50.905Z,193.47
2023-01-23T19:59:18.367Z,191.30
2023-01-23T20:01:48.546Z,195.17
2023-01-23T20:04:23.905Z,195.70
2023-01-23T20:06:54.121Z,188.73
2023-01-23T20:09:22.172Z,187.03
2023-01-23T20:11:50.142Z,196.47
2023-01-23T20:14:17.558Z,183.53
2023-01-23T20:16:45.018Z,191.83
2023-01-23T20:19:15.638Z,184.90
2023-01-23T20:21:43.230Z,190.50
2023-01-23T20:24:11.265Z,182.83
2023-01-23T20:26:39.264Z,176.37
2023-01-23T20:29:08.624Z,182.40
2023-01-23T20:31:36.258Z,179.37
2023-01-23T20:34:03.936Z,181.17
2023-01-23T20:36:31.407Z,177.87
2023-01-23T20:38:58.867Z,185.37
2023-01-23T20:41:26.294Z,179.17
2023-01-23T20:43:53.811Z,178.17
2023-01-23T20:46:21.290Z,186.07
2023-01-23T20:48:48.693Z,177.93
2023-01-23T20:51:17.088Z,178.73
2023-01-23T20:53:45.206Z,179.60
2023-01-23T20:56:19.245Z,177.63
2023-01-23T20:59:07.835Z,181.00
2023-01-23T21:01:57.147Z,182.67
2023-01-23T21:04:28.162Z,180.67
2023-01-23T21:06:55.577Z,176.17
2023-01-23T21:09:23.911Z,177.83
2023-01-23T21:11:52.757Z,181.73
2023-01-23T21:14:21.964Z,239.57
2023-01-23T21:16:49.918Z,182.97
2023-01-23T21:19:17.924Z,178.40
2023-01-23T21:21:45.993Z,194.97
2023-01-23T21:24:13.194Z,177.37
2023-01-23T21:26:40.741Z,188.83
2023-01-23T21:29:09.952Z,185.17
2023-01-23T21:31:41.376Z,179.27
2023-01-23T21:34:13.974Z,183.40
2023-01-23T21:36:42.652Z,174.83
2023-01-23T21:39:13.620Z,184.30
2023-01-23T21:41:41.074Z,182.23
2023-01-23T21:44:10.913Z,189.27
2023-01-23T21:46:38.678Z,179.60
2023-01-23T21:49:06.120Z,185.27
2023-01-23T21:51:33.780Z,185.70
2023-01-23T21:54:00.890Z,186.33
2023-01-23T21:56:28.029Z,199.47
2023-01-23T21:58:55.501Z,190.00
2023-01-23T22:01:45.283Z,184.80
2023-01-23T22:04:22.436Z,186.00
2023-01-23T22:06:55.040Z,181.53
2023-01-23T22:09:24.952Z,189.80
2023-01-23T22:11:52.716Z,178.37
2023-01-23T22:14:19.913Z,200.37
2023-01-23T22:16:49.387Z,181.57
2023-01-23T22:19:24.928Z,177.20
2023-01-23T22:21:57.161Z,191.47
2023-01-23T22:24:24.736Z,189.10
2023-01-23T22:26:52.312Z,190.57
2023-01-23T22:29:19.894Z,201.83
2023-01-23T22:31:47.057Z,185.20
2023-01-23T22:34:14.699Z,178.87
2023-01-23T22:36:42.144Z,183.63
2023-01-23T22:39:09.907Z,188.47
2023-01-23T22:41:37.340Z,184.97
2023-01-23T22:44:04.941Z,180.00
2023-01-23T22:46:32.543Z,179.03
2023-01-23T22:49:00.079Z,178.93
2023-01-23T22:51:28.400Z,180.50
2023-01-23T22:53:57.766Z,178.67
2023-01-23T22:56:27.352Z,188.87
2023-01-23T22:58:56.028Z,184.53
2023-01-23T23:01:24.857Z,181.20
2023-01-23T23:03:52.708Z,185.03
2023-01-23T23:06:20.373Z,175.40
2023-01-23T23:08:48.609Z,187.13
2023-01-23T23:11:22.094Z,177.47
2023-01-23T23:13:50.103Z,183.80
2023-01-23T23:16:23.718Z,191.17
2023-01-23T23:18:54.138Z,181.50
2023-01-23T23:21:25.398Z,219.57
2023-01-23T23:23:58.020Z,190.53
2023-01-23T23:26:27.834Z,188.23
2023-01-23T23:28:55.753Z,182.53
2023-01-23T23:31:23.296Z,185.53
2023-01-23T23:33:51.166Z,181.57
2023-01-23T23:36:18.837Z,181.40
2023-01-23T23:38:46.000Z,188.40
2023-01-23T23:41:15.862Z,179.37
2023-01-23T23:43:43.803Z,179.73
2023-01-23T23:46:12.683Z,185.33
2023-01-23T23:48:40.325Z,189.03
2023-01-23T23:51:12.158Z,179.70
2023-01-23T23:53:39.817Z,186.40
2023-01-23T23:56:08.079Z,175.17
2023-01-23T23:58:38.649Z,186.97
